CYQY

Sydney / J.A. Douglas McCurdy Airport

Sydney, Nova Scotia, Canada
TAF CYQY 230541Z 2306/2318 27007KT P6SM SKC BECMG 2312/2314 30010KT RMK NXT FCST BY 231200Z
Issued Valid From Valid To
Apr-23 @ 05:41 UTC
(4 hours ago)
Apr-23 @ 06:00 UTC
(4 hours ago)
Apr-23 @ 18:00 UTC
(in 8 hours)
Apr-23 @ 06:00 to Apr-23 @ 12:00
TAF CYQY 230541Z 2306/2318 27007KT P6SM SKC
Wind Visibility Clouds
270° at 7 knots Greater than 6 miles
  • Clear skies
Becoming Apr-23 @ 12:00 to Apr-23 @ 18:00
BECMG 2312/2314 30010KT RMK NXT FCST BY 231200Z
Wind Visibility Clouds
300° at 10 knots Greater than 6 miles
  • Clear skies
TAF CYQY 230541Z 2306/2318 27007KT P6SM SKC BECMG 2312/2314 30010KT RMK NXT FCST BY 231200Z
Issued Apr-23 @ 05:41 UTC
(4 hours ago)
Valid From Apr-23 @ 06:00 UTC
(4 hours ago)
Valid To Apr-23 @ 18:00 UTC
(in 8 hours)
Apr-23 @ 06:00 - Apr-23 @ 12:00
Wind Visibility
270° at 7 knots Greater than 6 miles
Clouds
  • Clear skies
Becoming Apr-23 @ 12:00 - Apr-23 @ 18:00
Wind Visibility
300° at 10 knots Greater than 6 miles
Clouds
  • Clear skies